sensor_id;sensor_type;location;lat;lon;timestamp;temperature;humidity
51175;DHT22;37240;50.104;20.010;2023-04-03T00:02:09;6.00;99.90
51175;DHT22;37240;50.104;20.010;2023-04-03T00:07:10;6.00;99.90
51175;DHT22;37240;50.104;20.010;2023-04-03T00:12:10;6.10;99.90
51175;DHT22;37240;50.104;20.010;2023-04-03T00:17:11;6.10;99.90
51175;DHT22;37240;50.104;20.010;2023-04-03T00:22:12;6.20;99.90
51175;DHT22;37240;50.104;20.010;2023-04-03T00:27:12;6.10;99.90
51175;DHT22;37240;50.104;20.010;2023-04-03T00:32:13;6.10;99.90
51175;DHT22;37240;50.104;20.010;2023-04-03T00:37:14;6.10;99.90
51175;DHT22;37240;50.104;20.010;2023-04-03T00:42:14;5.90;99.90
51175;DHT22;37240;50.104;20.010;2023-04-03T00:47:16;5.90;99.90
51175;DHT22;37240;50.104;20.010;2023-04-03T00:52:20;5.90;99.90
51175;DHT22;37240;50.104;20.010;2023-04-03T00:57:22;5.70;99.90
51175;DHT22;37240;50.104;20.010;2023-04-03T01:02:23;5.60;99.90
51175;DHT22;37240;50.104;20.010;2023-04-03T01:07:27;5.50;99.90
51175;DHT22;37240;50.104;20.010;2023-04-03T01:12:35;5.50;99.90
51175;DHT22;37240;50.104;20.010;2023-04-03T01:17:37;5.40;99.90
51175;DHT22;37240;50.104;20.010;2023-04-03T01:28:13;5.40;99.90
51175;DHT22;37240;50.104;20.010;2023-04-03T01:33:14;5.30;99.90
51175;DHT22;37240;50.104;20.010;2023-04-03T01:38:15;5.20;99.90
51175;DHT22;37240;50.104;20.010;2023-04-03T01:43:16;5.30;99.90
51175;DHT22;37240;50.104;20.010;2023-04-03T01:48:17;5.40;99.90
51175;DHT22;37240;50.104;20.010;2023-04-03T01:53:17;5.30;99.90
51175;DHT22;37240;50.104;20.010;2023-04-03T01:58:18;5.40;99.90
51175;DHT22;37240;50.104;20.010;2023-04-03T02:03:18;5.50;99.90
51175;DHT22;37240;50.104;20.010;2023-04-03T02:08:19;5.40;99.90
51175;DHT22;37240;50.104;20.010;2023-04-03T02:13:20;5.50;99.90
51175;DHT22;37240;50.104;20.010;2023-04-03T02:18:20;5.40;99.90
51175;DHT22;37240;50.104;20.010;2023-04-03T02:23:21;5.30;99.90
51175;DHT22;37240;50.104;20.010;2023-04-03T02:28:22;5.30;99.90
51175;DHT22;37240;50.104;20.010;2023-04-03T02:33:22;5.20;99.90
51175;DHT22;37240;50.104;20.010;2023-04-03T02:38:24;5.10;99.90
51175;DHT22;37240;50.104;20.010;2023-04-03T02:43:24;5.20;99.90
51175;DHT22;37240;50.104;20.010;2023-04-03T02:48:25;5.20;99.90
51175;DHT22;37240;50.104;20.010;2023-04-03T02:53:26;5.20;99.90
51175;DHT22;37240;50.104;20.010;2023-04-03T02:58:26;5.20;99.90
51175;DHT22;37240;50.104;20.010;2023-04-03T03:03:27;5.20;99.90
51175;DHT22;37240;50.104;20.010;2023-04-03T03:08:27;5.00;99.90
51175;DHT22;37240;50.104;20.010;2023-04-03T03:13:28;4.90;99.90
51175;DHT22;37240;50.104;20.010;2023-04-03T03:18:29;5.00;99.90
51175;DHT22;37240;50.104;20.010;2023-04-03T03:23:31;5.10;99.90
51175;DHT22;37240;50.104;20.010;2023-04-03T03:28:32;5.10;99.90
51175;DHT22;37240;50.104;20.010;2023-04-03T03:33:33;5.10;99.90
51175;DHT22;37240;50.104;20.010;2023-04-03T03:38:34;5.00;99.90
51175;DHT22;37240;50.104;20.010;2023-04-03T03:43:34;4.90;99.90
51175;DHT22;37240;50.104;20.010;2023-04-03T03:48:35;5.00;99.90
51175;DHT22;37240;50.104;20.010;2023-04-03T03:53:36;5.10;99.90
51175;DHT22;37240;50.104;20.010;2023-04-03T03:58:36;5.10;99.90
51175;DHT22;37240;50.104;20.010;2023-04-03T04:03:37;4.90;99.90
51175;DHT22;37240;50.104;20.010;2023-04-03T04:08:38;4.90;99.90
51175;DHT22;37240;50.104;20.010;2023-04-03T04:13:38;4.80;99.90
51175;DHT22;37240;50.104;20.010;2023-04-03T04:18:39;4.80;99.90
51175;DHT22;37240;50.104;20.010;2023-04-03T04:23:39;4.70;99.90
51175;DHT22;37240;50.104;20.010;2023-04-03T04:28:40;4.80;99.90
51175;DHT22;37240;50.104;20.010;2023-04-03T04:33:40;4.70;99.90
51175;DHT22;37240;50.104;20.010;2023-04-03T04:38:41;4.60;99.90
51175;DHT22;37240;50.104;20.010;2023-04-03T04:43:42;4.60;99.90
51175;DHT22;37240;50.104;20.010;2023-04-03T04:48:43;4.60;99.90
51175;DHT22;37240;50.104;20.010;2023-04-03T04:53:43;4.70;99.90
51175;DHT22;37240;50.104;20.010;2023-04-03T04:58:44;4.80;99.90
51175;DHT22;37240;50.104;20.010;2023-04-03T05:03:44;4.70;99.90
51175;DHT22;37240;50.104;20.010;2023-04-03T05:08:45;4.70;99.90
51175;DHT22;37240;50.104;20.010;2023-04-03T05:13:45;4.60;99.90
51175;DHT22;37240;50.104;20.010;2023-04-03T05:18:46;4.60;99.90
51175;DHT22;37240;50.104;20.010;2023-04-03T05:23:46;4.50;99.90
51175;DHT22;37240;50.104;20.010;2023-04-03T05:28:47;4.60;99.90
51175;DHT22;37240;50.104;20.010;2023-04-03T05:33:49;4.60;99.90
51175;DHT22;37240;50.104;20.010;2023-04-03T05:38:49;4.70;99.90
51175;DHT22;37240;50.104;20.010;2023-04-03T05:43:50;4.80;99.90
51175;DHT22;37240;50.104;20.010;2023-04-03T05:48:51;4.70;99.90
51175;DHT22;37240;50.104;20.010;2023-04-03T05:54:14;4.60;99.90
51175;DHT22;37240;50.104;20.010;2023-04-03T05:59:17;4.80;99.90
51175;DHT22;37240;50.104;20.010;2023-04-03T06:04:18;4.60;99.90
51175;DHT22;37240;50.104;20.010;2023-04-03T06:09:21;4.60;99.90
51175;DHT22;37240;50.104;20.010;2023-04-03T06:14:21;4.70;99.90
51175;DHT22;37240;50.104;20.010;2023-04-03T06:19:23;4.80;99.90
51175;DHT22;37240;50.104;20.010;2023-04-03T06:24:23;4.80;99.90
51175;DHT22;37240;50.104;20.010;2023-04-03T06:29:24;4.80;99.90
51175;DHT22;37240;50.104;20.010;2023-04-03T06:34:24;4.90;99.90
51175;DHT22;37240;50.104;20.010;2023-04-03T06:39:25;4.80;99.90
51175;DHT22;37240;50.104;20.010;2023-04-03T06:44:25;4.80;99.90
51175;DHT22;37240;50.104;20.010;2023-04-03T06:49:26;4.90;99.90
51175;DHT22;37240;50.104;20.010;2023-04-03T06:54:26;5.10;99.90
51175;DHT22;37240;50.104;20.010;2023-04-03T06:59:27;5.20;99.90
51175;DHT22;37240;50.104;20.010;2023-04-03T07:04:28;5.40;99.90
51175;DHT22;37240;50.104;20.010;2023-04-03T07:09:28;5.60;99.50
51175;DHT22;37240;50.104;20.010;2023-04-03T07:14:29;5.70;99.40
51175;DHT22;37240;50.104;20.010;2023-04-03T07:19:29;5.80;98.50
51175;DHT22;37240;50.104;20.010;2023-04-03T07:24:30;6.10;97.90
51175;DHT22;37240;50.104;20.010;2023-04-03T07:29:31;6.70;96.90
51175;DHT22;37240;50.104;20.010;2023-04-03T07:34:32;7.40;94.40
51175;DHT22;37240;50.104;20.010;2023-04-03T07:39:33;7.50;92.70
51175;DHT22;37240;50.104;20.010;2023-04-03T07:44:33;7.50;91.20
51175;DHT22;37240;50.104;20.010;2023-04-03T07:49:34;7.50;90.80
51175;DHT22;37240;50.104;20.010;2023-04-03T07:54:34;7.40;90.10
51175;DHT22;37240;50.104;20.010;2023-04-03T07:59:35;7.80;91.10
51175;DHT22;37240;50.104;20.010;2023-04-03T08:04:35;8.20;87.40
51175;DHT22;37240;50.104;20.010;2023-04-03T08:09:36;8.30;85.10
51175;DHT22;37240;50.104;20.010;2023-04-03T08:14:37;8.20;82.30
51175;DHT22;37240;50.104;20.010;2023-04-03T08:19:38;8.10;86.90
51175;DHT22;37240;50.104;20.010;2023-04-03T08:24:39;8.40;86.70
51175;DHT22;37240;50.104;20.010;2023-04-03T08:29:40;8.60;87.30
51175;DHT22;37240;50.104;20.010;2023-04-03T08:34:40;8.60;86.10
51175;DHT22;37240;50.104;20.010;2023-04-03T08:39:41;8.20;85.40
51175;DHT22;37240;50.104;20.010;2023-04-03T08:45:07;8.00;85.20
51175;DHT22;37240;50.104;20.010;2023-04-03T08:50:18;7.90;87.10
51175;DHT22;37240;50.104;20.010;2023-04-03T08:55:34;7.60;84.10
51175;DHT22;37240;50.104;20.010;2023-04-03T09:06:00;7.30;90.50
51175;DHT22;37240;50.104;20.010;2023-04-03T09:22:11;6.70;90.00
51175;DHT22;37240;50.104;20.010;2023-04-03T09:27:13;6.70;91.50
51175;DHT22;37240;50.104;20.010;2023-04-03T09:32:34;6.60;91.20
51175;DHT22;37240;50.104;20.010;2023-04-03T09:37:40;6.70;91.40
51175;DHT22;37240;50.104;20.010;2023-04-03T09:42:42;6.60;91.70
51175;DHT22;37240;50.104;20.010;2023-04-03T09:47:43;6.40;91.40
51175;DHT22;37240;50.104;20.010;2023-04-03T09:52:46;6.20;90.80
51175;DHT22;37240;50.104;20.010;2023-04-03T09:57:48;5.90;90.90
51175;DHT22;37240;50.104;20.010;2023-04-03T10:02:52;5.90;91.80
51175;DHT22;37240;50.104;20.010;2023-04-03T10:08:08;6.20;92.40
51175;DHT22;37240;50.104;20.010;2023-04-03T10:13:15;6.30;90.90
51175;DHT22;37240;50.104;20.010;2023-04-03T10:18:48;6.00;89.60
51175;DHT22;37240;50.104;20.010;2023-04-03T10:34:37;6.20;92.00
51175;DHT22;37240;50.104;20.010;2023-04-03T10:44:52;6.40;91.50
51175;DHT22;37240;50.104;20.010;2023-04-03T10:55:24;6.70;91.90
51175;DHT22;37240;50.104;20.010;2023-04-03T11:00:35;6.70;88.00
51175;DHT22;37240;50.104;20.010;2023-04-03T11:05:56;6.70;88.50
51175;DHT22;37240;50.104;20.010;2023-04-03T11:11:35;6.70;88.50
51175;DHT22;37240;50.104;20.010;2023-04-03T11:16:41;6.90;88.90
51175;DHT22;37240;50.104;20.010;2023-04-03T11:21:46;7.20;87.60
51175;DHT22;37240;50.104;20.010;2023-04-03T11:26:49;7.50;85.40
51175;DHT22;37240;50.104;20.010;2023-04-03T11:42:38;8.20;84.60
51175;DHT22;37240;50.104;20.010;2023-04-03T11:47:54;8.30;78.10
51175;DHT22;37240;50.104;20.010;2023-04-03T11:52:57;8.30;80.00
51175;DHT22;37240;50.104;20.010;2023-04-03T12:02:58;7.30;73.30
51175;DHT22;37240;50.104;20.010;2023-04-03T12:08:23;7.20;76.20
51175;DHT22;37240;50.104;20.010;2023-04-03T12:13:24;7.70;74.00
51175;DHT22;37240;50.104;20.010;2023-04-03T12:18:53;7.90;68.00
51175;DHT22;37240;50.104;20.010;2023-04-03T12:24:26;7.80;69.90
51175;DHT22;37240;50.104;20.010;2023-04-03T12:39:59;8.10;71.00
51175;DHT22;37240;50.104;20.010;2023-04-03T12:50:37;8.00;64.50
51175;DHT22;37240;50.104;20.010;2023-04-03T12:55:40;8.20;67.50
51175;DHT22;37240;50.104;20.010;2023-04-03T13:00:41;7.90;66.30
51175;DHT22;37240;50.104;20.010;2023-04-03T13:05:44;7.40;65.00
51175;DHT22;37240;50.104;20.010;2023-04-03T13:11:06;7.10;65.00
51175;DHT22;37240;50.104;20.010;2023-04-03T13:16:10;7.00;67.70
51175;DHT22;37240;50.104;20.010;2023-04-03T13:21:18;7.10;70.00
51175;DHT22;37240;50.104;20.010;2023-04-03T13:26:22;7.20;68.00
51175;DHT22;37240;50.104;20.010;2023-04-03T13:31:26;7.20;64.30
51175;DHT22;37240;50.104;20.010;2023-04-03T13:36:35;7.00;64.30
51175;DHT22;37240;50.104;20.010;2023-04-03T13:41:38;7.10;66.80
51175;DHT22;37240;50.104;20.010;2023-04-03T13:46:39;7.00;65.50
51175;DHT22;37240;50.104;20.010;2023-04-03T13:51:39;6.90;68.00
51175;DHT22;37240;50.104;20.010;2023-04-03T13:56:41;6.50;68.10
51175;DHT22;37240;50.104;20.010;2023-04-03T14:06:50;6.50;71.00
51175;DHT22;37240;50.104;20.010;2023-04-03T14:11:55;6.50;72.30
51175;DHT22;37240;50.104;20.010;2023-04-03T14:17:00;6.70;72.10
51175;DHT22;37240;50.104;20.010;2023-04-03T14:22:40;6.70;74.10
51175;DHT22;37240;50.104;20.010;2023-04-03T14:27:40;6.60;73.30
51175;DHT22;37240;50.104;20.010;2023-04-03T14:32:41;6.30;72.80
51175;DHT22;37240;50.104;20.010;2023-04-03T14:37:42;6.50;74.60
51175;DHT22;37240;50.104;20.010;2023-04-03T14:42:44;6.60;74.10
51175;DHT22;37240;50.104;20.010;2023-04-03T14:47:48;6.70;70.30
51175;DHT22;37240;50.104;20.010;2023-04-03T14:52:50;7.10;67.70
51175;DHT22;37240;50.104;20.010;2023-04-03T14:57:52;6.90;64.50
51175;DHT22;37240;50.104;20.010;2023-04-03T15:02:53;7.00;66.40
51175;DHT22;37240;50.104;20.010;2023-04-03T15:07:55;6.90;65.40
51175;DHT22;37240;50.104;20.010;2023-04-03T15:12:56;7.10;67.80
51175;DHT22;37240;50.104;20.010;2023-04-03T15:17:57;7.10;62.80
51175;DHT22;37240;50.104;20.010;2023-04-03T15:22:58;6.90;64.20
51175;DHT22;37240;50.104;20.010;2023-04-03T15:27:59;7.00;65.20
51175;DHT22;37240;50.104;20.010;2023-04-03T15:33:00;7.10;64.00
51175;DHT22;37240;50.104;20.010;2023-04-03T15:38:00;6.70;63.00
51175;DHT22;37240;50.104;20.010;2023-04-03T15:43:01;6.90;66.60
51175;DHT22;37240;50.104;20.010;2023-04-03T15:48:03;6.90;66.20
51175;DHT22;37240;50.104;20.010;2023-04-03T15:53:03;6.80;65.90
51175;DHT22;37240;50.104;20.010;2023-04-03T15:58:04;6.70;64.00
51175;DHT22;37240;50.104;20.010;2023-04-03T16:03:10;6.60;61.80
51175;DHT22;37240;50.104;20.010;2023-04-03T16:08:11;6.60;63.80
51175;DHT22;37240;50.104;20.010;2023-04-03T16:13:13;6.70;64.50
51175;DHT22;37240;50.104;20.010;2023-04-03T16:18:14;6.80;64.10
51175;DHT22;37240;50.104;20.010;2023-04-03T16:23:15;6.40;61.40
51175;DHT22;37240;50.104;20.010;2023-04-03T16:28:17;6.20;63.40
51175;DHT22;37240;50.104;20.010;2023-04-03T16:33:18;6.20;63.50
51175;DHT22;37240;50.104;20.010;2023-04-03T16:38:19;6.10;64.80
51175;DHT22;37240;50.104;20.010;2023-04-03T16:43:20;6.20;65.10
51175;DHT22;37240;50.104;20.010;2023-04-03T16:48:20;6.20;63.90
51175;DHT22;37240;50.104;20.010;2023-04-03T16:53:22;6.10;64.40
51175;DHT22;37240;50.104;20.010;2023-04-03T16:58:23;6.00;64.70
51175;DHT22;37240;50.104;20.010;2023-04-03T17:03:24;6.00;65.50
51175;DHT22;37240;50.104;20.010;2023-04-03T17:08:25;5.90;66.80
51175;DHT22;37240;50.104;20.010;2023-04-03T17:13:26;5.90;67.30
51175;DHT22;37240;50.104;20.010;2023-04-03T17:18:26;5.80;68.10
51175;DHT22;37240;50.104;20.010;2023-04-03T17:23:28;5.70;70.10
51175;DHT22;37240;50.104;20.010;2023-04-03T17:28:29;5.70;71.60
51175;DHT22;37240;50.104;20.010;2023-04-03T17:33:29;5.70;72.10
51175;DHT22;37240;50.104;20.010;2023-04-03T17:38:31;5.70;73.40
51175;DHT22;37240;50.104;20.010;2023-04-03T17:43:32;5.70;74.80
51175;DHT22;37240;50.104;20.010;2023-04-03T17:48:35;5.70;74.20
51175;DHT22;37240;50.104;20.010;2023-04-03T17:53:36;5.70;74.80
51175;DHT22;37240;50.104;20.010;2023-04-03T17:58:37;5.70;74.90
51175;DHT22;37240;50.104;20.010;2023-04-03T18:03:38;5.60;75.60
51175;DHT22;37240;50.104;20.010;2023-04-03T18:08:41;5.60;76.10
51175;DHT22;37240;50.104;20.010;2023-04-03T18:13:43;5.60;76.90
51175;DHT22;37240;50.104;20.010;2023-04-03T18:18:44;5.50;77.40
51175;DHT22;37240;50.104;20.010;2023-04-03T18:23:49;5.50;78.70
51175;DHT22;37240;50.104;20.010;2023-04-03T18:28:56;5.40;79.00
51175;DHT22;37240;50.104;20.010;2023-04-03T18:33:57;5.40;79.20
51175;DHT22;37240;50.104;20.010;2023-04-03T18:38:57;5.40;79.00
51175;DHT22;37240;50.104;20.010;2023-04-03T18:44:00;5.30;79.20
51175;DHT22;37240;50.104;20.010;2023-04-03T18:49:03;5.30;80.20
51175;DHT22;37240;50.104;20.010;2023-04-03T18:54:04;5.20;81.70
51175;DHT22;37240;50.104;20.010;2023-04-03T18:59:05;5.20;82.30
51175;DHT22;37240;50.104;20.010;2023-04-03T19:04:07;5.20;83.10
51175;DHT22;37240;50.104;20.010;2023-04-03T19:09:07;5.10;83.80
51175;DHT22;37240;50.104;20.010;2023-04-03T19:14:08;5.10;84.60
51175;DHT22;37240;50.104;20.010;2023-04-03T19:19:09;5.10;84.70
51175;DHT22;37240;50.104;20.010;2023-04-03T19:24:11;5.10;85.70
51175;DHT22;37240;50.104;20.010;2023-04-03T19:29:12;5.10;85.80
51175;DHT22;37240;50.104;20.010;2023-04-03T19:34:13;5.20;85.20
51175;DHT22;37240;50.104;20.010;2023-04-03T19:39:14;5.30;86.20
51175;DHT22;37240;50.104;20.010;2023-04-03T19:44:17;5.20;84.70
51175;DHT22;37240;50.104;20.010;2023-04-03T19:49:18;5.20;85.60
51175;DHT22;37240;50.104;20.010;2023-04-03T19:54:20;5.20;86.10
51175;DHT22;37240;50.104;20.010;2023-04-03T19:59:21;5.20;87.10
51175;DHT22;37240;50.104;20.010;2023-04-03T20:04:22;5.30;86.60
51175;DHT22;37240;50.104;20.010;2023-04-03T20:09:22;5.30;86.30
51175;DHT22;37240;50.104;20.010;2023-04-03T20:14:23;5.30;85.70
51175;DHT22;37240;50.104;20.010;2023-04-03T20:19:24;5.30;86.20
51175;DHT22;37240;50.104;20.010;2023-04-03T20:24:24;5.30;87.60
51175;DHT22;37240;50.104;20.010;2023-04-03T20:29:25;5.30;86.60
51175;DHT22;37240;50.104;20.010;2023-04-03T20:34:26;5.40;85.80
51175;DHT22;37240;50.104;20.010;2023-04-03T20:39:26;5.30;85.90
51175;DHT22;37240;50.104;20.010;2023-04-03T20:44:27;5.20;86.10
51175;DHT22;37240;50.104;20.010;2023-04-03T20:49:28;5.20;85.60
51175;DHT22;37240;50.104;20.010;2023-04-03T20:54:28;5.30;86.70
51175;DHT22;37240;50.104;20.010;2023-04-03T20:59:29;5.30;87.10
51175;DHT22;37240;50.104;20.010;2023-04-03T21:04:39;5.40;87.50
51175;DHT22;37240;50.104;20.010;2023-04-03T21:20:47;5.40;88.40
51175;DHT22;37240;50.104;20.010;2023-04-03T21:25:48;5.40;88.70
51175;DHT22;37240;50.104;20.010;2023-04-03T21:30:49;5.50;89.10
51175;DHT22;37240;50.104;20.010;2023-04-03T21:35:49;5.50;89.40
51175;DHT22;37240;50.104;20.010;2023-04-03T21:40:49;5.40;89.30
51175;DHT22;37240;50.104;20.010;2023-04-03T21:45:53;5.40;89.70
51175;DHT22;37240;50.104;20.010;2023-04-03T21:51:01;5.40;88.70
51175;DHT22;37240;50.104;20.010;2023-04-03T21:56:02;5.50;88.10
51175;DHT22;37240;50.104;20.010;2023-04-03T22:01:12;5.40;88.00
51175;DHT22;37240;50.104;20.010;2023-04-03T22:06:14;5.40;88.30
51175;DHT22;37240;50.104;20.010;2023-04-03T22:11:15;5.30;88.60
51175;DHT22;37240;50.104;20.010;2023-04-03T22:16:16;5.40;89.20
51175;DHT22;37240;50.104;20.010;2023-04-03T22:21:17;5.40;89.20
51175;DHT22;37240;50.104;20.010;2023-04-03T22:26:17;5.40;89.60
51175;DHT22;37240;50.104;20.010;2023-04-03T22:31:18;5.40;89.60
51175;DHT22;37240;50.104;20.010;2023-04-03T22:36:19;5.30;89.70
51175;DHT22;37240;50.104;20.010;2023-04-03T22:41:19;5.20;90.10
51175;DHT22;37240;50.104;20.010;2023-04-03T22:46:20;5.10;90.60
51175;DHT22;37240;50.104;20.010;2023-04-03T22:51:21;5.10;90.70
51175;DHT22;37240;50.104;20.010;2023-04-03T22:56:21;5.10;90.80
51175;DHT22;37240;50.104;20.010;2023-04-03T23:01:22;5.20;90.80
51175;DHT22;37240;50.104;20.010;2023-04-03T23:06:22;5.20;90.80
51175;DHT22;37240;50.104;20.010;2023-04-03T23:11:23;5.10;91.00
51175;DHT22;37240;50.104;20.010;2023-04-03T23:16:23;5.10;91.10
51175;DHT22;37240;50.104;20.010;2023-04-03T23:21:25;5.10;90.90
51175;DHT22;37240;50.104;20.010;2023-04-03T23:26:25;5.00;90.90
51175;DHT22;37240;50.104;20.010;2023-04-03T23:31:26;5.00;90.90
51175;DHT22;37240;50.104;20.010;2023-04-03T23:36:26;4.90;91.00
51175;DHT22;37240;50.104;20.010;2023-04-03T23:41:27;4.90;91.20
51175;DHT22;37240;50.104;20.010;2023-04-03T23:46:28;4.80;91.20
51175;DHT22;37240;50.104;20.010;2023-04-03T23:51:28;4.70;91.20
51175;DHT22;37240;50.104;20.010;2023-04-03T23:56:29;4.60;91.40
